Time;durP1;ratioP1;P1;durP2;ratioP2;P2;SDS_P1;SDS_P2;PMS_P1;PMS_P2;Temp;Humidity;BMP_temperature;BMP_pressure;BME280_temperature;BME280_humidity;BME280_pressure;Samples;Min_cycle;Max_cycle;Signal;HPM_P1;HPM_P2
2022/01/28 00:05:13;;;;;;;23.23;21.73;;;4.90;88.10;;;;;;5072766;28;20196;-71
2022/01/28 00:07:40;;;;;;;26.20;24.60;;;4.90;88.60;;;;;;5072362;28;20256;-71
2022/01/28 00:10:07;;;;;;;21.25;19.95;;;5.00;88.70;;;;;;5072244;28;20226;-71
2022/01/28 00:12:38;;;;;;;23.27;21.58;;;5.00;87.90;;;;;;5072231;28;20570;-71
2022/01/28 00:15:13;;;;;;;22.88;21.38;;;5.00;87.90;;;;;;5072588;28;20235;-71
2022/01/28 00:18:26;;;;;;;22.38;21.08;;;5.00;88.10;;;;;;5072441;28;20268;-71
2022/01/28 00:36:24;;;;;;;21.17;19.95;;;5.00;88.00;;;;;;5071999;28;20223;-71
2022/01/28 00:38:00;;;;;;;20.92;19.63;;;5.30;87.60;;;;;;5072314;28;20251;-71
2022/01/28 00:40:26;;;;;;;21.85;20.52;;;5.30;86.90;;;;;;5071918;28;20558;-71
2022/01/28 00:42:53;;;;;;;20.70;19.23;;;5.30;87.30;;;;;;5072286;28;20196;-71
2022/01/28 00:45:20;;;;;;;20.85;19.55;;;5.40;87.00;;;;;;5072175;28;20283;-71
2022/01/28 00:47:47;;;;;;;21.35;20.05;;;5.40;86.70;;;;;;5072191;28;20206;-71
2022/01/28 00:50:15;;;;;;;20.63;19.35;;;5.40;86.20;;;;;;5071922;28;20216;-71
2022/01/28 00:52:43;;;;;;;22.17;20.50;;;5.40;86.20;;;;;;5072237;28;20567;-71
2022/01/28 00:55:10;;;;;;;22.00;20.42;;;5.40;86.00;;;;;;5075592;28;20206;-71
2022/01/28 00:57:37;;;;;;;21.63;20.23;;;5.40;86.10;;;;;;5075975;28;20192;-71
2022/01/28 01:00:06;;;;;;;21.08;19.77;;;5.40;86.10;;;;;;5075724;28;20311;-71
2022/01/28 01:02:33;;;;;;;20.70;19.48;;;5.40;86.80;;;;;;5075901;28;20202;-71
2022/01/28 01:05:00;;;;;;;22.20;20.80;;;5.40;86.30;;;;;;5075865;28;20199;-72
2022/01/28 01:07:27;;;;;;;21.27;19.92;;;5.40;86.00;;;;;;5075671;28;20200;-71
2022/01/28 01:09:55;;;;;;;22.38;20.70;;;5.40;86.60;;;;;;5075538;28;20581;-71
2022/01/28 01:12:24;;;;;;;21.00;19.70;;;5.40;86.70;;;;;;5075740;28;20220;-71
2022/01/28 01:14:51;;;;;;;21.13;19.88;;;5.40;85.90;;;;;;5075557;28;20547;-72
2022/01/28 01:17:29;;;;;;;21.02;19.77;;;5.20;85.70;;;;;;5075761;28;20279;-71
2022/01/28 01:20:11;;;;;;;21.42;20.10;;;5.20;86.00;;;;;;5075374;28;20220;-71
2022/01/28 01:22:39;;;;;;;21.52;19.95;;;5.10;85.90;;;;;;5075555;28;20196;-71
2022/01/28 01:25:17;;;;;;;20.95;19.58;;;5.00;86.30;;;;;;5075498;28;20235;-71
2022/01/28 01:27:47;;;;;;;21.45;20.05;;;5.00;86.10;;;;;;5075477;28;20195;-71
2022/01/28 01:30:17;;;;;;;22.02;20.63;;;4.80;86.30;;;;;;5075215;28;20215;-71
2022/01/28 01:32:44;;;;;;;21.35;20.05;;;4.80;86.80;;;;;;5075669;28;20212;-71
2022/01/28 01:35:11;;;;;;;21.50;20.20;;;4.80;86.90;;;;;;5075600;28;20196;-71
2022/01/28 01:37:38;;;;;;;21.27;19.92;;;4.80;86.60;;;;;;5075261;28;20635;-71
2022/01/28 01:40:08;;;;;;;21.02;19.52;;;4.70;86.60;;;;;;5075097;28;20307;-71
2022/01/28 01:42:44;;;;;;;20.83;19.63;;;4.70;86.90;;;;;;5075339;28;20196;-71
2022/01/28 01:53:47;;;;;;;21.17;19.88;;;4.50;87.50;;;;;;5033012;28;20229;-71
2022/01/28 01:56:16;;;;;;;21.02;19.67;;;4.60;87.30;;;;;;5032892;28;20292;-71
2022/01/28 01:58:43;;;;;;;21.80;20.10;;;4.60;87.50;;;;;;5051172;28;20372;-71
2022/01/28 02:01:10;;;;;;;21.70;20.17;;;4.60;87.30;;;;;;5074666;28;20247;-71
2022/01/28 02:03:37;;;;;;;21.10;19.80;;;4.60;87.40;;;;;;5074828;28;20198;-71
2022/01/28 02:06:04;;;;;;;21.50;20.10;;;4.60;87.20;;;;;;5074140;28;20218;-71
2022/01/28 02:08:33;;;;;;;22.90;21.20;;;4.50;87.50;;;;;;5074290;28;20204;-71
2022/01/28 02:11:00;;;;;;;20.58;19.05;;;4.50;87.40;;;;;;5074505;28;20226;-71
2022/01/28 02:13:30;;;;;;;21.60;20.20;;;4.40;87.30;;;;;;5074451;28;20220;-70
2022/01/28 02:15:58;;;;;;;21.58;19.95;;;4.40;87.40;;;;;;5074594;28;20274;-71
2022/01/28 02:18:26;;;;;;;21.17;19.88;;;4.40;87.40;;;;;;5074456;28;20278;-72
2022/01/28 02:21:01;;;;;;;21.45;20.05;;;4.30;87.60;;;;;;5074229;28;20220;-71
2022/01/28 02:23:28;;;;;;;22.33;20.38;;;4.30;87.90;;;;;;5074530;28;20205;-71
2022/01/28 02:25:57;;;;;;;21.02;19.73;;;4.30;88.10;;;;;;5074324;28;20283;-70
2022/01/28 02:28:26;;;;;;;21.80;20.48;;;4.20;88.10;;;;;;5074392;28;20202;-71
2022/01/28 02:30:53;;;;;;;20.75;19.38;;;4.20;88.10;;;;;;5074082;28;20212;-71
2022/01/28 02:33:23;;;;;;;21.10;19.70;;;4.30;87.90;;;;;;5074225;28;20220;-71
2022/01/28 02:35:51;;;;;;;22.83;21.30;;;4.30;87.50;;;;;;5074188;28;20196;-71
2022/01/28 02:38:21;;;;;;;21.75;20.33;;;4.30;87.50;;;;;;5074373;28;20270;-71
2022/01/28 02:40:54;;;;;;;20.83;19.42;;;4.20;88.00;;;;;;5073901;28;20227;-71
2022/01/28 02:43:31;;;;;;;20.88;19.60;;;4.10;88.50;;;;;;5074431;28;20192;-71
2022/01/28 02:46:05;;;;;;;21.55;19.95;;;4.20;88.60;;;;;;5074089;28;20200;-71
2022/01/28 02:48:34;;;;;;;20.88;19.48;;;4.20;88.30;;;;;;5073861;28;20572;-71
2022/01/28 02:51:06;;;;;;;20.38;19.17;;;4.20;88.50;;;;;;5073745;28;20597;-71
2022/01/28 02:53:42;;;;;;;21.00;19.52;;;4.20;88.10;;;;;;5073829;28;20215;-71
2022/01/28 02:56:20;;;;;;;20.20;18.80;;;4.20;88.20;;;;;;5073769;28;20684;-71
2022/01/28 02:58:47;;;;;;;20.42;19.13;;;4.10;88.50;;;;;;5073805;28;20292;-71
2022/01/28 03:01:16;;;;;;;20.85;19.55;;;4.10;88.30;;;;;;5073487;28;20223;-71
2022/01/28 03:03:45;;;;;;;21.42;20.10;;;4.10;88.60;;;;;;5073602;28;20196;-71
2022/01/28 03:06:13;;;;;;;20.35;19.10;;;4.10;87.90;;;;;;5073548;28;20269;-71
2022/01/28 03:08:46;;;;;;;21.95;20.38;;;4.10;87.90;;;;;;5073359;28;20198;-71
2022/01/28 03:14:12;;;;;;;20.90;19.60;;;4.00;87.80;;;;;;5073005;28;20226;-71
2022/01/28 03:16:52;;;;;;;20.65;19.45;;;4.00;87.70;;;;;;5072805;28;20204;-71
2022/01/28 03:19:22;;;;;;;20.95;19.35;;;4.10;87.70;;;;;;5073389;28;20253;-71
2022/01/28 03:21:55;;;;;;;21.73;20.42;;;4.10;88.50;;;;;;5073470;28;20554;-71
2022/01/28 03:24:23;;;;;;;21.50;20.10;;;4.10;87.80;;;;;;5073354;28;20242;-71
2022/01/28 03:26:53;;;;;;;20.98;19.67;;;4.10;87.50;;;;;;5073155;28;20299;-71
2022/01/28 03:29:20;;;;;;;22.35;21.05;;;4.10;87.20;;;;;;5072992;28;20291;-71
2022/01/28 03:31:47;;;;;;;22.98;20.95;;;4.10;86.80;;;;;;5073285;28;20199;-71
2022/01/28 03:34:14;;;;;;;22.10;20.60;;;4.10;86.80;;;;;;5072981;28;20226;-71
2022/01/28 03:36:41;;;;;;;20.45;19.20;;;4.10;87.30;;;;;;5072995;28;20287;-71
2022/01/28 03:39:10;;;;;;;20.80;19.60;;;4.10;86.90;;;;;;5072930;28;20196;-71
2022/01/28 03:41:39;;;;;;;78.53;25.88;;;4.10;87.00;;;;;;5073032;28;20219;-71
2022/01/28 03:44:06;;;;;;;21.48;20.17;;;4.20;87.30;;;;;;5072980;28;20261;-71
2022/01/28 03:46:33;;;;;;;23.55;21.85;;;4.20;87.30;;;;;;5072824;28;20683;-71
2022/01/28 03:49:02;;;;;;;21.63;20.17;;;4.30;87.40;;;;;;5072731;28;20199;-71
2022/01/28 03:51:29;;;;;;;21.95;20.65;;;4.30;86.80;;;;;;5072618;28;20242;-71
2022/01/28 03:53:57;;;;;;;22.58;20.90;;;4.30;86.30;;;;;;5072720;28;20216;-71
2022/01/28 03:56:24;;;;;;;21.90;20.60;;;4.40;85.80;;;;;;5072775;28;20199;-71
2022/01/28 03:58:52;;;;;;;23.45;21.95;;;4.40;85.80;;;;;;5072466;28;20225;-71
2022/01/28 04:01:24;;;;;;;21.30;19.98;;;4.50;85.40;;;;;;5072533;28;20254;-71
2022/01/28 04:04:15;;;;;;;25.73;23.70;;;4.60;85.10;;;;;;5072693;28;20275;-71
2022/01/28 04:12:08;;;;;;;23.40;21.90;;;4.60;84.70;;;;;;5072549;28;20729;-71
2022/01/28 04:14:44;;;;;;;21.88;20.40;;;4.60;85.00;;;;;;5072623;28;20230;-71
2022/01/28 04:17:21;;;;;;;24.48;23.00;;;4.60;84.70;;;;;;5072505;28;20282;-71
2022/01/28 04:19:52;;;;;;;23.20;21.70;;;4.60;84.60;;;;;;5072248;28;20219;-71
2022/01/28 04:22:19;;;;;;;23.48;21.90;;;4.50;84.80;;;;;;5072476;28;20196;-71
2022/01/28 04:24:46;;;;;;;23.80;22.30;;;4.50;84.70;;;;;;5072580;28;20192;-71
2022/01/28 04:27:13;;;;;;;23.55;22.13;;;4.50;85.10;;;;;;5072390;28;20234;-71
2022/01/28 04:29:43;;;;;;;23.70;21.80;;;4.50;85.10;;;;;;5075210;28;20200;-71
2022/01/28 04:32:10;;;;;;;23.38;21.77;;;4.40;85.50;;;;;;5076632;28;20191;-71
2022/01/28 04:34:38;;;;;;;22.50;20.95;;;4.40;85.70;;;;;;5076446;28;20302;-71
2022/01/28 04:37:14;;;;;;;25.35;23.55;;;4.30;87.40;;;;;;5076410;28;20199;-71
2022/01/28 04:39:48;;;;;;;25.75;23.85;;;4.30;87.60;;;;;;5076156;28;20712;-71
2022/01/28 04:42:27;;;;;;;25.27;23.45;;;4.20;86.90;;;;;;5076470;28;20218;-71
2022/01/28 04:45:03;;;;;;;26.50;24.80;;;4.30;86.10;;;;;;5076406;28;20195;-71
2022/01/28 04:47:37;;;;;;;25.52;23.90;;;4.20;86.00;;;;;;5076196;28;20199;-71
2022/01/28 04:50:13;;;;;;;24.70;22.98;;;4.20;86.20;;;;;;5076106;28;20215;-71
2022/01/28 04:55:37;;;;;;;22.15;20.75;;;4.20;86.50;;;;;;5075891;28;20693;-71
2022/01/28 04:58:22;;;;;;;24.55;22.85;;;4.10;87.10;;;;;;5076056;28;20200;-71
2022/01/28 05:01:01;;;;;;;20.80;19.60;;;4.20;86.60;;;;;;5075894;28;20563;-71
2022/01/28 05:03:45;;;;;;;23.98;22.30;;;4.30;86.00;;;;;;5075968;28;20684;-71
2022/01/28 05:26:11;;;;;;;23.70;21.95;;;4.10;86.20;;;;;;5075523;28;20210;-71
2022/01/28 05:28:39;;;;;;;21.83;20.38;;;4.10;86.40;;;;;;5075232;28;20199;-71
2022/01/28 05:31:06;;;;;;;24.73;23.05;;;4.10;86.50;;;;;;5075142;28;20242;-71
2022/01/28 05:33:35;;;;;;;25.60;23.90;;;4.10;86.60;;;;;;5075403;28;20196;-71
2022/01/28 05:36:02;;;;;;;23.48;21.75;;;4.10;86.80;;;;;;5075389;28;20196;-71
2022/01/28 05:38:29;;;;;;;24.80;23.05;;;3.90;87.00;;;;;;5075245;28;20192;-71
2022/01/28 05:40:55;;;;;;;24.95;23.25;;;3.90;87.40;;;;;;5073908;28;20220;-71
2022/01/28 05:43:22;;;;;;;20.70;19.30;;;3.90;87.70;;;;;;5075288;28;20200;-71
2022/01/28 05:45:49;;;;;;;24.42;22.83;;;3.90;87.40;;;;;;5075233;28;20228;-71
2022/01/28 05:48:17;;;;;;;22.60;21.20;;;3.90;87.70;;;;;;5075147;28;20226;-71
2022/01/28 05:50:45;;;;;;;23.52;21.67;;;3.90;87.80;;;;;;5074894;28;20241;-72
2022/01/28 05:53:12;;;;;;;23.63;21.77;;;3.90;87.60;;;;;;5075105;28;20227;-71
2022/01/28 05:55:40;;;;;;;24.10;22.50;;;3.80;87.60;;;;;;5074767;28;20693;-72
2022/01/28 05:58:07;;;;;;;24.27;22.27;;;3.80;87.70;;;;;;5074795;28;20223;-71
2022/01/28 06:00:34;;;;;;;24.85;23.35;;;3.70;88.00;;;;;;5074581;28;20215;-72
2022/01/28 06:03:01;;;;;;;25.90;24.20;;;3.80;87.90;;;;;;5074976;28;20203;-71
2022/01/28 06:05:30;;;;;;;25.45;23.35;;;3.90;87.80;;;;;;5074767;28;20571;-72
2022/01/28 06:07:58;;;;;;;29.92;23.40;;;3.80;87.80;;;;;;5074473;28;20196;-72
2022/01/28 06:10:25;;;;;;;25.10;23.17;;;3.80;89.80;;;;;;5074411;28;20307;-72
2022/01/28 06:12:52;;;;;;;24.17;22.27;;;3.70;89.00;;;;;;5074442;28;20196;-72
2022/01/28 06:15:19;;;;;;;25.25;23.42;;;3.70;88.50;;;;;;5074630;28;20215;-71
2022/01/28 06:17:46;;;;;;;26.05;24.25;;;3.70;88.10;;;;;;5074564;28;20279;-72
2022/01/28 06:20:16;;;;;;;23.40;21.95;;;3.80;88.00;;;;;;5074207;28;20226;-71
2022/01/28 06:22:44;;;;;;;25.17;23.35;;;3.70;88.00;;;;;;5074522;28;20217;-72
2022/01/28 06:25:14;;;;;;;25.15;23.00;;;3.70;88.10;;;;;;5074306;28;20191;-72
2022/01/28 06:27:41;;;;;;;24.23;22.55;;;3.70;88.50;;;;;;5074318;28;20200;-71
2022/01/28 06:30:10;;;;;;;25.75;23.75;;;3.70;88.20;;;;;;5073968;28;20223;-71
2022/01/28 06:32:36;;;;;;;25.30;23.70;;;3.70;88.40;;;;;;5074158;28;20287;-71
2022/01/28 06:35:07;;;;;;;24.90;23.20;;;3.70;88.10;;;;;;5074276;28;20649;-71
2022/01/28 06:37:35;;;;;;;24.50;22.73;;;3.70;88.30;;;;;;5074156;28;20203;-72
2022/01/28 06:40:02;;;;;;;25.75;23.80;;;3.70;88.00;;;;;;5073977;28;20220;-71
2022/01/28 06:42:31;;;;;;;23.33;21.58;;;3.70;87.70;;;;;;5074112;28;20206;-72
2022/01/28 06:44:57;;;;;;;24.75;22.95;;;3.70;88.20;;;;;;5074117;28;20275;-71
2022/01/28 06:47:25;;;;;;;25.90;23.95;;;3.60;88.10;;;;;;5074112;28;20198;-71
2022/01/28 06:49:52;;;;;;;26.50;24.45;;;3.70;87.90;;;;;;5073794;28;20226;-71
2022/01/28 06:52:18;;;;;;;25.05;23.25;;;3.70;87.90;;;;;;5073806;28;20246;-71
2022/01/28 06:54:45;;;;;;;24.58;22.70;;;3.60;88.00;;;;;;5073739;28;20216;-71
2022/01/28 06:57:12;;;;;;;27.08;24.77;;;3.70;87.80;;;;;;5073925;28;20198;-71
2022/01/28 06:59:41;;;;;;;26.00;23.83;;;3.70;87.70;;;;;;5073649;28;20290;-71
2022/01/28 07:02:08;;;;;;;27.40;24.88;;;3.70;87.80;;;;;;5073866;28;20200;-71
2022/01/28 07:04:35;;;;;;;24.35;22.35;;;3.70;88.00;;;;;;5073486;28;20202;-71
2022/01/28 07:07:02;;;;;;;26.88;24.88;;;3.70;88.20;;;;;;5073432;28;20286;-71
2022/01/28 07:09:29;;;;;;;24.77;23.08;;;3.70;88.00;;;;;;5073434;28;20257;-71
2022/01/28 07:11:56;;;;;;;28.27;25.80;;;3.70;87.90;;;;;;5073342;28;20308;-71
2022/01/28 07:14:23;;;;;;;26.42;24.33;;;3.70;88.00;;;;;;5073546;28;20306;-71
2022/01/28 07:16:51;;;;;;;26.20;24.17;;;3.70;88.10;;;;;;5073466;28;20283;-72
2022/01/28 07:19:18;;;;;;;27.15;25.00;;;3.80;88.20;;;;;;5073105;28;20196;-71
2022/01/28 07:21:45;;;;;;;26.80;24.85;;;3.70;88.40;;;;;;5073335;28;20247;-72
2022/01/28 07:24:12;;;;;;;27.30;25.17;;;3.80;88.40;;;;;;5073192;28;20207;-72
2022/01/28 07:26:39;;;;;;;27.13;24.98;;;3.80;88.40;;;;;;5073283;28;20202;-72
2022/01/28 07:29:09;;;;;;;25.25;23.45;;;3.90;87.90;;;;;;5073271;28;20196;-71
2022/01/28 07:31:37;;;;;;;26.75;24.95;;;3.90;88.00;;;;;;5073306;28;20220;-72
2022/01/28 07:34:06;;;;;;;26.17;23.95;;;3.90;87.50;;;;;;5073001;28;20192;-71
2022/01/28 07:36:33;;;;;;;25.27;23.55;;;3.90;87.50;;;;;;5073165;28;20784;-72
2022/01/28 07:39:00;;;;;;;25.20;23.10;;;3.90;87.70;;;;;;5073016;28;20287;-72
2022/01/28 07:41:27;;;;;;;27.13;24.92;;;3.90;87.80;;;;;;5072933;28;20302;-72
2022/01/28 07:43:54;;;;;;;27.20;25.27;;;4.00;87.80;;;;;;5072951;28;20196;-72
2022/01/28 07:46:21;;;;;;;26.83;24.92;;;4.20;87.20;;;;;;5072911;28;20203;-71
2022/01/28 07:48:48;;;;;;;25.63;23.52;;;4.20;86.80;;;;;;5072806;28;20200;-71
2022/01/28 07:51:16;;;;;;;25.33;23.40;;;4.30;86.40;;;;;;5072813;28;20215;-72
2022/01/28 07:53:43;;;;;;;24.92;22.88;;;4.40;86.50;;;;;;5072920;28;20192;-72
2022/01/28 07:56:11;;;;;;;26.55;24.65;;;4.40;86.20;;;;;;5072604;28;20731;-71
2022/01/28 07:58:38;;;;;;;26.10;23.92;;;4.50;85.70;;;;;;5072569;28;20210;-72
2022/01/28 08:01:05;;;;;;;26.20;24.23;;;4.60;85.40;;;;;;5072734;28;20216;-72
2022/01/28 08:03:32;;;;;;;25.45;23.63;;;4.60;84.90;;;;;;5072095;28;20287;-72
2022/01/28 08:05:59;;;;;;;27.33;25.30;;;4.60;84.70;;;;;;5072733;28;20688;-72
2022/01/28 08:08:27;;;;;;;24.48;22.67;;;4.70;84.50;;;;;;5072368;28;20291;-72
2022/01/28 08:10:54;;;;;;;24.80;23.02;;;4.70;84.30;;;;;;5072417;28;20212;-71
2022/01/28 08:13:21;;;;;;;26.25;24.55;;;4.80;84.20;;;;;;5072533;28;20196;-71
2022/01/28 08:15:49;;;;;;;25.70;23.65;;;4.80;84.70;;;;;;5072480;28;20310;-72
2022/01/28 08:18:16;;;;;;;26.33;24.33;;;4.80;83.50;;;;;;5072413;28;20227;-71
2022/01/28 08:20:46;;;;;;;24.30;22.50;;;4.80;84.00;;;;;;5072317;28;20220;-71
2022/01/28 08:23:13;;;;;;;26.67;24.58;;;4.90;84.60;;;;;;5072734;28;20736;-72
2022/01/28 08:25:42;;;;;;;24.95;23.25;;;4.90;84.80;;;;;;5072463;28;20224;-72
2022/01/28 08:28:09;;;;;;;24.67;23.08;;;5.00;83.90;;;;;;5072404;28;20627;-71
2022/01/28 08:30:38;;;;;;;25.08;23.30;;;5.10;82.70;;;;;;5072139;28;20215;-72
2022/01/28 08:33:06;;;;;;;24.90;22.75;;;5.30;81.40;;;;;;5072543;28;20242;-71
2022/01/28 08:35:37;;;;;;;26.00;24.08;;;5.20;82.60;;;;;;5072386;28;20593;-71
2022/01/28 08:38:12;;;;;;;26.35;24.23;;;5.30;82.00;;;;;;5072511;28;20261;-72
2022/01/28 08:40:39;;;;;;;24.63;22.83;;;5.40;81.20;;;;;;5072056;28;20218;-71
2022/01/28 08:43:07;;;;;;;25.63;23.83;;;5.40;81.50;;;;;;5072441;28;20214;-72
2022/01/28 08:45:34;;;;;;;26.85;24.38;;;5.50;81.80;;;;;;5072348;28;20279;-71
2022/01/28 08:48:01;;;;;;;25.27;23.48;;;5.50;80.90;;;;;;5072312;28;20200;-72
2022/01/28 08:50:28;;;;;;;23.83;22.13;;;5.60;80.60;;;;;;5071937;28;20226;-71
2022/01/28 08:52:55;;;;;;;26.05;24.27;;;5.60;81.20;;;;;;5072170;28;20192;-72
2022/01/28 08:55:21;;;;;;;26.35;24.65;;;5.70;80.00;;;;;;5072081;28;20220;-71
2022/01/28 08:57:48;;;;;;;26.20;24.15;;;5.80;79.10;;;;;;5072207;28;20232;-71
2022/01/28 09:00:18;;;;;;;25.90;24.10;;;5.80;78.00;;;;;;5071903;28;20223;-71
2022/01/28 09:02:45;;;;;;;25.45;23.85;;;5.70;78.10;;;;;;5072216;28;20196;-72
2022/01/28 09:05:12;;;;;;;26.00;24.40;;;5.80;78.00;;;;;;5072146;28;20196;-72
2022/01/28 09:07:39;;;;;;;25.55;23.80;;;5.80;77.80;;;;;;5071675;28;20283;-72
2022/01/28 09:10:11;;;;;;;25.13;23.38;;;5.90;77.80;;;;;;5071746;28;20226;-71
2022/01/28 09:12:48;;;;;;;27.83;26.00;;;5.90;77.50;;;;;;5071954;28;20204;-72
2022/01/28 09:15:17;;;;;;;25.45;23.70;;;6.00;77.50;;;;;;5073890;28;20219;-72
2022/01/28 09:17:44;;;;;;;26.90;25.20;;;6.20;77.00;;;;;;5075746;28;20196;-72
2022/01/28 09:20:12;;;;;;;28.23;26.20;;;6.20;76.90;;;;;;5075528;28;20224;-72
2022/01/28 09:22:38;;;;;;;25.73;23.90;;;6.20;76.60;;;;;;5075694;28;20207;-72
2022/01/28 09:25:06;;;;;;;25.92;24.20;;;6.20;76.80;;;;;;5075726;28;20188;-72
2022/01/28 09:27:33;;;;;;;27.92;25.98;;;6.40;76.60;;;;;;5075637;28;20204;-71
2022/01/28 09:30:00;;;;;;;25.83;23.73;;;6.50;75.70;;;;;;5075433;28;20723;-72
2022/01/28 09:32:28;;;;;;;25.55;23.85;;;6.60;75.50;;;;;;5075897;28;20195;-71
2022/01/28 09:34:55;;;;;;;26.38;24.65;;;6.50;75.20;;;;;;5075370;28;20561;-71
2022/01/28 09:37:23;;;;;;;24.35;22.52;;;6.50;75.40;;;;;;5075488;28;20282;-72
2022/01/28 09:39:50;;;;;;;25.63;23.95;;;6.60;75.80;;;;;;5075208;28;20580;-72
2022/01/28 09:42:20;;;;;;;24.60;23.00;;;6.70;74.80;;;;;;5075338;28;20729;-72
2022/01/28 09:44:48;;;;;;;27.30;25.02;;;6.70;75.30;;;;;;5075215;28;20657;-72
2022/01/28 09:47:16;;;;;;;25.63;24.00;;;6.90;74.90;;;;;;5075059;28;20647;-72
2022/01/28 09:49:45;;;;;;;26.52;24.63;;;7.00;73.50;;;;;;5074893;28;20220;-71
2022/01/28 09:52:13;;;;;;;24.15;22.55;;;7.10;73.60;;;;;;5075070;28;20203;-72
2022/01/28 09:54:43;;;;;;;23.90;22.27;;;7.20;73.10;;;;;;5074903;28;20195;-72
2022/01/28 09:57:11;;;;;;;23.73;22.13;;;7.20;71.90;;;;;;5074985;28;20238;-72
2022/01/28 09:59:38;;;;;;;25.95;24.13;;;7.20;71.70;;;;;;5074516;28;20211;-72
2022/01/28 10:02:06;;;;;;;24.63;22.83;;;7.40;71.40;;;;;;5074938;28;20710;-72
2022/01/28 10:04:33;;;;;;;23.58;21.80;;;7.40;73.50;;;;;;5074963;28;20673;-72
2022/01/28 10:07:10;;;;;;;25.13;23.23;;;7.50;71.00;;;;;;5074642;28;20196;-72
2022/01/28 10:09:37;;;;;;;24.48;23.05;;;7.60;71.50;;;;;;5074613;28;20530;-72
2022/01/28 10:12:17;;;;;;;25.10;23.15;;;7.60;69.50;;;;;;5074714;28;20432;-72
2022/01/28 10:15:00;;;;;;;23.33;21.88;;;7.70;68.60;;;;;;5074720;28;20779;-72
2022/01/28 10:17:42;;;;;;;26.15;24.33;;;7.60;68.50;;;;;;5074808;28;20195;-72
2022/01/28 10:20:09;;;;;;;24.17;22.48;;;7.30;68.80;;;;;;5074324;28;20233;-72
2022/01/28 10:22:50;;;;;;;25.40;23.50;;;7.20;68.90;;;;;;5074780;28;20284;-72
2022/01/28 10:25:24;;;;;;;24.98;23.58;;;7.40;68.80;;;;;;5074509;28;20649;-72
2022/01/28 10:27:58;;;;;;;23.55;21.85;;;7.50;68.50;;;;;;5073935;28;20282;-72
2022/01/28 10:30:25;;;;;;;23.92;22.27;;;7.50;68.70;;;;;;5074054;28;20302;-71
2022/01/28 10:33:15;;;;;;;24.75;23.33;;;7.40;67.80;;;;;;5074195;28;20206;-72
2022/01/28 10:35:50;;;;;;;24.77;23.30;;;7.20;68.90;;;;;;5074240;28;20215;-72
2022/01/28 10:38:31;;;;;;;23.58;22.08;;;7.40;69.20;;;;;;5074297;28;20206;-72
2022/01/28 10:41:13;;;;;;;23.33;21.83;;;7.10;68.50;;;;;;5073991;28;20353;-72
2022/01/28 10:43:45;;;;;;;24.38;22.58;;;7.10;69.40;;;;;;5074064;28;20531;-72
2022/01/28 10:46:11;;;;;;;23.27;21.80;;;7.30;69.20;;;;;;5073934;28;20653;-72
2022/01/28 10:48:53;;;;;;;26.10;24.50;;;7.40;69.00;;;;;;5074002;28;20299;-72
2022/01/28 10:51:21;;;;;;;23.80;22.10;;;7.40;68.10;;;;;;5073978;28;20220;-71
2022/01/28 10:54:06;;;;;;;23.10;21.65;;;7.40;69.00;;;;;;5073950;28;20283;-72
2022/01/28 10:56:47;;;;;;;24.20;22.80;;;7.40;68.00;;;;;;5073720;28;20250;-72
2022/01/28 10:59:16;;;;;;;25.85;23.92;;;7.40;69.80;;;;;;5073493;28;20207;-72
2022/01/28 11:01:44;;;;;;;23.27;21.58;;;7.60;68.30;;;;;;5073786;28;20227;-72
2022/01/28 11:04:12;;;;;;;22.75;21.25;;;7.60;67.40;;;;;;5073557;28;20200;-72
2022/01/28 11:06:40;;;;;;;23.83;22.38;;;7.50;67.10;;;;;;5073430;28;20721;-72
2022/01/28 11:09:08;;;;;;;23.15;21.70;;;7.40;67.00;;;;;;5073511;28;20526;-72
2022/01/28 11:11:35;;;;;;;22.90;21.60;;;7.50;66.90;;;;;;5073489;28;20311;-72
2022/01/28 11:14:04;;;;;;;23.50;22.10;;;7.20;67.10;;;;;;5073445;28;20200;-72
2022/01/28 11:16:31;;;;;;;24.33;22.63;;;7.30;67.10;;;;;;5073391;28;20216;-72
2022/01/28 11:18:58;;;;;;;23.23;21.83;;;7.40;67.10;;;;;;5073290;28;20232;-72
2022/01/28 11:21:34;;;;;;;25.77;24.42;;;7.40;66.40;;;;;;5073122;28;20223;-72
2022/01/28 11:24:09;;;;;;;25.67;23.88;;;7.00;66.70;;;;;;5073418;28;20206;-72
2022/01/28 11:26:49;;;;;;;25.15;23.20;;;6.80;67.70;;;;;;5073307;28;20200;-72
2022/01/28 11:29:20;;;;;;;25.50;24.10;;;7.00;68.00;;;;;;5073146;28;20616;-72
2022/01/28 11:31:48;;;;;;;23.92;22.30;;;7.30;67.40;;;;;;5073349;28;20222;-72
2022/01/28 11:34:18;;;;;;;24.98;23.30;;;7.20;66.80;;;;;;5073215;28;20539;-72
2022/01/28 11:36:45;;;;;;;25.70;24.00;;;7.30;66.90;;;;;;5072995;28;20693;-72
2022/01/28 11:39:32;;;;;;;24.55;23.05;;;7.40;65.90;;;;;;5072017;28;20653;-72
2022/01/28 11:42:08;;;;;;;24.75;22.80;;;7.40;65.80;;;;;;5073021;28;20281;-72
2022/01/28 11:44:52;;;;;;;24.70;22.80;;;7.60;65.80;;;;;;5073013;28;20199;-72
2022/01/28 11:47:25;;;;;;;24.63;23.13;;;7.80;66.00;;;;;;5072912;28;20281;-72
2022/01/28 11:50:05;;;;;;;23.65;21.90;;;7.80;65.10;;;;;;5072878;28;20299;-72
2022/01/28 11:52:33;;;;;;;23.08;21.77;;;7.80;65.20;;;;;;5072806;28;20206;-72
2022/01/28 11:55:30;;;;;;;22.52;21.13;;;7.40;64.50;;;;;;5072771;28;20199;-72
2022/01/28 11:58:04;;;;;;;23.17;21.77;;;7.30;64.10;;;;;;5072759;28;20291;-72
2022/01/28 12:00:33;;;;;;;24.80;23.30;;;7.20;65.50;;;;;;5072483;28;20211;-72
2022/01/28 12:03:01;;;;;;;25.33;23.30;;;7.20;65.80;;;;;;5072849;28;20227;-72
2022/01/28 12:05:52;;;;;;;23.15;21.92;;;7.30;65.70;;;;;;5072658;28;20200;-72
2022/01/28 12:08:20;;;;;;;23.42;21.90;;;7.30;67.10;;;;;;5063835;28;20198;-72
2022/01/28 12:10:50;;;;;;;27.00;25.35;;;7.10;67.10;;;;;;5072482;28;20580;-72
2022/01/28 12:13:21;;;;;;;23.92;22.67;;;7.00;67.70;;;;;;5072475;28;20195;-72
2022/01/28 12:16:11;;;;;;;23.17;21.40;;;7.00;67.50;;;;;;5072536;28;20827;-72
2022/01/28 12:18:53;;;;;;;22.38;21.05;;;6.90;67.20;;;;;;5072515;28;20665;-72
2022/01/28 12:21:25;;;;;;;24.77;23.13;;;6.90;67.10;;;;;;5072354;28;20265;-72
2022/01/28 12:23:54;;;;;;;23.48;21.70;;;7.00;66.50;;;;;;5072555;28;20227;-72
2022/01/28 12:26:22;;;;;;;23.45;21.98;;;7.10;66.20;;;;;;5072608;28;20253;-72
2022/01/28 12:29:03;;;;;;;24.60;23.08;;;6.90;65.80;;;;;;5072507;28;20191;-72
2022/01/28 12:31:33;;;;;;;26.00;23.95;;;6.70;66.60;;;;;;5072376;28;20303;-72
2022/01/28 12:34:03;;;;;;;25.10;23.60;;;6.60;67.10;;;;;;5072361;28;20196;-72
2022/01/28 12:36:33;;;;;;;23.23;21.83;;;7.00;66.60;;;;;;5072284;28;20310;-72
2022/01/28 12:39:11;;;;;;;22.95;21.58;;;7.20;66.30;;;;;;5072318;28;20200;-72
2022/01/28 12:41:50;;;;;;;24.10;22.60;;;7.20;66.20;;;;;;5072319;28;20627;-72
2022/01/28 12:44:19;;;;;;;25.20;23.42;;;7.00;66.50;;;;;;5072370;28;20722;-72
2022/01/28 12:46:51;;;;;;;27.02;25.00;;;7.10;66.40;;;;;;5072226;28;20227;-72
2022/01/28 12:49:23;;;;;;;24.77;23.08;;;7.10;66.30;;;;;;5072698;28;20203;-72
2022/01/28 12:51:57;;;;;;;24.15;22.55;;;7.20;66.10;;;;;;5076264;28;20723;-72
2022/01/28 12:54:31;;;;;;;24.73;22.75;;;7.20;66.50;;;;;;5076224;28;20200;-71
2022/01/28 12:56:58;;;;;;;25.55;23.80;;;7.10;67.20;;;;;;5075919;28;20227;-72
2022/01/28 12:59:26;;;;;;;23.73;22.33;;;7.00;67.90;;;;;;5075733;28;20207;-72
2022/01/28 13:01:54;;;;;;;24.08;22.50;;;6.90;68.40;;;;;;5076075;28;20206;-72
2022/01/28 13:04:24;;;;;;;27.15;25.58;;;7.00;68.40;;;;;;5076204;28;20206;-72
2022/01/28 13:08:24;;;;;;;26.88;25.27;;;6.90;69.00;;;;;;5075764;28;20192;-72
2022/01/28 13:09:49;;;;;;;27.20;24.83;;;6.80;69.80;;;;;;5075548;28;20754;-72
2022/01/28 13:12:22;;;;;;;25.80;23.98;;;6.70;70.60;;;;;;5075742;28;20204;-72
2022/01/28 13:14:51;;;;;;;26.88;24.92;;;6.80;70.40;;;;;;5075918;28;20246;-72
2022/01/28 13:17:23;;;;;;;25.20;23.50;;;6.90;69.50;;;;;;5075696;28;20216;-72
2022/01/28 13:19:57;;;;;;;27.70;25.70;;;6.90;69.70;;;;;;5075240;28;20299;-72
2022/01/28 13:22:26;;;;;;;26.55;24.60;;;7.10;69.30;;;;;;5075855;28;20292;-72
2022/01/28 13:24:53;;;;;;;25.88;24.05;;;7.00;69.70;;;;;;5075635;28;20283;-72
2022/01/28 13:27:22;;;;;;;27.10;25.35;;;7.10;69.70;;;;;;5075602;28;20279;-72
2022/01/28 13:29:53;;;;;;;27.30;25.27;;;7.00;70.20;;;;;;5075263;28;20220;-72
2022/01/28 13:32:24;;;;;;;25.50;23.90;;;6.90;71.40;;;;;;5075321;28;20191;-72
2022/01/28 13:34:53;;;;;;;25.77;23.98;;;6.80;72.30;;;;;;5075411;28;20231;-72
2022/01/28 13:37:38;;;;;;;26.85;24.90;;;6.90;72.20;;;;;;5075192;28;20298;-72
2022/01/28 13:40:08;;;;;;;27.40;25.52;;;6.90;71.10;;;;;;5072543;28;20216;-72
2022/01/28 13:42:35;;;;;;;26.10;24.30;;;6.90;70.60;;;;;;5075245;28;20279;-72
2022/01/28 13:45:07;;;;;;;25.05;23.25;;;6.80;71.10;;;;;;5075025;28;20280;-72
2022/01/28 13:47:51;;;;;;;26.33;24.58;;;6.80;71.30;;;;;;5075143;28;20203;-72
2022/01/28 13:50:29;;;;;;;25.50;23.77;;;6.70;72.50;;;;;;5060191;28;20228;-72